createdAt,value
2023-02-17T00:03:03.609Z,47.55
2023-02-17T00:08:08.768Z,43.13
2023-02-17T00:13:12.579Z,45.45
2023-02-17T00:18:16.258Z,49.13
2023-02-17T00:23:21.323Z,46.15
2023-02-17T00:28:25.032Z,43.17
2023-02-17T00:33:28.838Z,45.90
2023-02-17T00:38:34.210Z,45.30
2023-02-17T00:43:37.895Z,41.13
2023-02-17T00:48:41.978Z,43.15
2023-02-17T00:53:47.590Z,44.78
2023-02-17T00:58:51.309Z,44.22
2023-02-17T01:03:55.228Z,42.35
2023-02-17T01:09:00.556Z,43.33
2023-02-17T01:14:07.441Z,37.65
2023-02-17T01:19:14.510Z,38.13
2023-02-17T01:24:19.566Z,39.05
2023-02-17T01:29:23.251Z,40.88
2023-02-17T01:34:26.962Z,37.60
2023-02-17T01:39:32.201Z,38.70
2023-02-17T01:44:36.014Z,36.88
2023-02-17T01:49:42.846Z,38.25
2023-02-17T01:54:52.251Z,38.33
2023-02-17T01:59:56.691Z,38.13
2023-02-17T02:05:02.102Z,36.75
2023-02-17T02:10:08.914Z,36.85
2023-02-17T02:15:14.681Z,35.08
2023-02-17T02:20:55.428Z,38.53
2023-02-17T02:26:30.686Z,37.40
2023-02-17T02:31:47.069Z,38.80
2023-02-17T02:36:57.933Z,34.78
2023-02-17T02:42:06.781Z,39.10
2023-02-17T02:47:42.570Z,42.92
2023-02-17T02:53:00.410Z,39.17
2023-02-17T02:58:12.618Z,44.00
2023-02-17T03:09:11.099Z,44.78
2023-02-17T03:14:17.453Z,44.13
2023-02-17T03:19:24.720Z,44.17
2023-02-17T03:24:30.032Z,45.20
2023-02-17T03:29:33.869Z,43.50
2023-02-17T03:34:37.572Z,42.90
2023-02-17T03:39:42.613Z,45.67
2023-02-17T03:44:46.290Z,48.88
2023-02-17T03:49:49.973Z,47.70
2023-02-17T03:54:54.975Z,45.08
2023-02-17T03:59:58.699Z,47.50
2023-02-17T04:05:02.361Z,48.15
2023-02-17T04:10:09.692Z,42.85
2023-02-17T04:15:13.517Z,36.63
2023-02-17T04:20:17.241Z,38.13
2023-02-17T04:25:22.249Z,35.40
2023-02-17T04:30:25.942Z,37.95
2023-02-17T04:35:29.857Z,35.42
2023-02-17T04:40:34.924Z,40.47
2023-02-17T04:45:39.239Z,38.08
2023-02-17T04:50:42.938Z,37.95
2023-02-17T04:55:49.408Z,35.45
2023-02-17T05:00:53.235Z,37.58
2023-02-17T05:05:56.887Z,36.35
2023-02-17T05:11:02.239Z,37.70
2023-02-17T05:16:06.705Z,34.42
2023-02-17T05:21:10.566Z,36.63
2023-02-17T05:26:15.615Z,33.33
2023-02-17T05:31:19.642Z,34.38
2023-02-17T05:36:23.354Z,32.38
2023-02-17T05:41:28.812Z,33.40
2023-02-17T05:46:32.616Z,34.45
2023-02-17T05:51:36.799Z,33.53
2023-02-17T05:56:41.864Z,33.13
2023-02-17T06:01:45.620Z,32.65
2023-02-17T06:06:49.261Z,36.97
2023-02-17T06:11:54.370Z,37.80
2023-02-17T06:17:00.673Z,37.85
2023-02-17T06:22:04.966Z,33.50
2023-02-17T06:27:10.074Z,38.20
2023-02-17T06:32:13.738Z,36.33
2023-02-17T06:37:18.214Z,33.50
2023-02-17T06:42:23.366Z,33.85
2023-02-17T06:47:27.068Z,33.70
2023-02-17T06:52:30.768Z,31.75
2023-02-17T06:57:35.861Z,32.30
2023-02-17T07:02:40.341Z,35.72
2023-02-17T07:07:44.205Z,33.30
2023-02-17T07:12:49.414Z,33.38
2023-02-17T07:17:53.354Z,33.17
2023-02-17T07:22:57.100Z,33.03
2023-02-17T07:28:02.428Z,35.50
2023-02-17T07:33:07.053Z,34.63
2023-02-17T07:38:11.878Z,35.25
2023-02-17T07:43:16.978Z,36.65
2023-02-17T07:48:22.077Z,35.88
2023-02-17T07:53:26.213Z,39.53
2023-02-17T07:58:32.840Z,35.55
2023-02-17T08:03:36.764Z,37.15
2023-02-17T08:08:58.173Z,34.67
2023-02-17T08:14:03.681Z,31.48
2023-02-17T08:19:07.781Z,29.67
2023-02-17T08:24:12.388Z,28.63
2023-02-17T08:29:17.963Z,34.33
2023-02-17T08:34:21.728Z,34.80
2023-02-17T08:39:26.063Z,31.63
2023-02-17T08:44:31.444Z,30.55
2023-02-17T08:49:35.949Z,32.15
2023-02-17T08:54:39.991Z,34.30
2023-02-17T08:59:48.094Z,35.70
2023-02-17T09:04:51.847Z,31.00
2023-02-17T09:09:55.779Z,33.22
2023-02-17T09:15:01.339Z,32.25
2023-02-17T09:20:16.229Z,36.17
2023-02-17T09:25:26.918Z,36.63
2023-02-17T09:30:32.461Z,28.63
2023-02-17T09:35:38.723Z,28.38
2023-02-17T09:40:47.460Z,27.40
2023-02-17T09:45:58.115Z,27.53
2023-02-17T09:51:06.038Z,24.95
2023-02-17T09:56:13.485Z,31.25
2023-02-17T10:01:21.928Z,28.73
2023-02-17T10:06:30.341Z,25.60
2023-02-17T10:11:36.358Z,34.00
2023-02-17T10:16:48.290Z,62.22
2023-02-17T10:22:00.370Z,73.72
2023-02-17T10:27:23.190Z,63.15
2023-02-17T10:32:30.509Z,32.15
2023-02-17T10:37:46.360Z,25.63
2023-02-17T10:42:53.997Z,26.63
2023-02-17T10:48:04.363Z,29.90
2023-02-17T10:53:14.908Z,20.27
2023-02-17T10:58:23.457Z,24.05
2023-02-17T11:03:31.074Z,26.45
2023-02-17T11:08:38.600Z,29.05
2023-02-17T11:13:46.181Z,27.00
2023-02-17T11:18:52.047Z,29.80
2023-02-17T11:23:59.881Z,26.98
2023-02-17T11:29:12.189Z,23.53
2023-02-17T11:34:23.810Z,23.20
2023-02-17T11:39:28.321Z,25.77
2023-02-17T11:44:32.218Z,27.15
2023-02-17T11:49:52.104Z,26.92
2023-02-17T11:55:13.414Z,30.98
2023-02-17T12:00:20.619Z,23.38
2023-02-17T12:05:35.860Z,30.93
2023-02-17T12:10:50.472Z,24.60
2023-02-17T12:16:10.237Z,23.65
2023-02-17T12:21:29.801Z,29.30
2023-02-17T12:26:40.420Z,23.63
2023-02-17T12:31:58.163Z,22.23
2023-02-17T12:37:06.121Z,24.05
2023-02-17T12:42:15.398Z,21.00
2023-02-17T12:47:27.232Z,25.50
2023-02-17T12:52:38.002Z,18.48
2023-02-17T12:57:47.457Z,26.35
2023-02-17T13:02:51.273Z,25.33
2023-02-17T13:08:02.698Z,25.52
2023-02-17T13:13:10.978Z,24.05
2023-02-17T13:18:27.601Z,23.67
2023-02-17T13:23:39.484Z,27.67
2023-02-17T13:28:43.558Z,23.73
2023-02-17T13:33:50.795Z,21.83
2023-02-17T13:39:03.118Z,22.13
2023-02-17T13:44:27.155Z,20.67
2023-02-17T13:49:35.294Z,23.70
2023-02-17T13:54:42.051Z,23.83
2023-02-17T13:59:45.839Z,22.95
2023-02-17T14:04:49.620Z,23.60
2023-02-17T14:09:55.944Z,21.45
2023-02-17T14:14:59.612Z,23.85
2023-02-17T14:20:03.467Z,20.23
2023-02-17T14:25:13.470Z,18.65
2023-02-17T14:30:30.002Z,15.15
2023-02-17T14:35:35.427Z,19.88
2023-02-17T14:40:40.554Z,19.10
2023-02-17T14:45:44.298Z,31.85
2023-02-17T14:50:48.785Z,25.70
2023-02-17T14:55:57.686Z,25.30
2023-02-17T15:01:01.915Z,28.02
2023-02-17T15:06:12.839Z,27.45
2023-02-17T15:11:22.067Z,37.75
2023-02-17T15:16:25.916Z,31.88
2023-02-17T15:21:32.112Z,27.73
2023-02-17T15:26:37.235Z,26.73
2023-02-17T15:31:41.159Z,33.78
2023-02-17T15:36:45.330Z,25.05
2023-02-17T15:41:51.316Z,23.88
2023-02-17T15:46:56.848Z,29.20
2023-02-17T15:52:00.542Z,27.00
2023-02-17T15:57:09.110Z,34.45
2023-02-17T16:02:22.176Z,24.70
2023-02-17T16:07:25.934Z,28.65
2023-02-17T16:12:31.177Z,41.80
2023-02-17T16:17:34.864Z,41.53
2023-02-17T16:22:38.650Z,31.73
2023-02-17T16:27:45.929Z,24.33
2023-02-17T16:32:50.702Z,27.42
2023-02-17T16:37:57.164Z,25.70
2023-02-17T16:43:02.288Z,25.73
2023-02-17T16:48:08.931Z,23.92
2023-02-17T16:53:16.432Z,17.00
2023-02-17T16:58:24.389Z,22.73
2023-02-17T17:03:28.223Z,30.08
2023-02-17T17:08:32.057Z,33.58
2023-02-17T17:13:37.299Z,29.45
2023-02-17T17:18:41.240Z,29.77
2023-02-17T17:23:46.467Z,29.17
2023-02-17T17:28:51.840Z,23.95
2023-02-17T17:33:56.153Z,20.20
2023-02-17T17:39:01.529Z,23.35
2023-02-17T17:44:07.978Z,25.30
2023-02-17T17:49:14.757Z,26.65
2023-02-17T17:54:18.469Z,33.83
2023-02-17T17:59:23.570Z,18.15
2023-02-17T18:04:27.535Z,23.75
2023-02-17T18:09:34.089Z,26.35
2023-02-17T18:14:41.463Z,30.98
2023-02-17T18:19:46.043Z,30.73
2023-02-17T18:24:50.137Z,24.98
2023-02-17T18:29:58.650Z,29.67
2023-02-17T18:35:02.537Z,29.92
2023-02-17T18:40:07.394Z,21.90
2023-02-17T18:45:13.224Z,27.55
2023-02-17T18:50:17.483Z,42.08
2023-02-17T18:55:21.554Z,32.40
2023-02-17T19:00:27.227Z,27.65
2023-02-17T19:05:30.992Z,26.92
2023-02-17T19:10:35.211Z,30.88
2023-02-17T19:15:40.546Z,24.52
2023-02-17T19:20:44.992Z,32.78
2023-02-17T19:25:48.684Z,25.50
2023-02-17T19:30:56.560Z,27.17
2023-02-17T19:36:00.349Z,23.95
2023-02-17T19:41:05.032Z,28.50
2023-02-17T19:46:12.502Z,35.33
2023-02-17T19:51:16.287Z,36.53
2023-02-17T19:56:22.953Z,23.58
2023-02-17T20:01:30.202Z,27.52
2023-02-17T20:06:35.905Z,32.55
2023-02-17T20:11:40.334Z,33.65
2023-02-17T20:16:45.532Z,28.73
2023-02-17T20:21:49.300Z,24.35
2023-02-17T20:26:53.754Z,31.05
2023-02-17T20:31:58.980Z,25.85
2023-02-17T20:37:03.124Z,30.98
2023-02-17T20:42:07.121Z,25.50
2023-02-17T20:47:13.026Z,28.83
2023-02-17T20:52:16.810Z,23.85
2023-02-17T20:57:20.521Z,17.77
2023-02-17T21:02:25.793Z,21.50
2023-02-17T21:07:29.706Z,19.90
2023-02-17T21:12:33.478Z,18.98
2023-02-17T21:17:39.067Z,15.52
2023-02-17T21:22:42.822Z,13.80
2023-02-17T21:27:46.532Z,13.80
2023-02-17T21:32:51.622Z,15.35
2023-02-17T21:37:55.947Z,13.50
2023-02-17T21:43:17.445Z,13.25
2023-02-17T21:48:22.706Z,12.40
2023-02-17T21:53:26.457Z,17.73
2023-02-17T21:58:31.182Z,24.10
2023-02-17T22:03:36.374Z,21.83
2023-02-17T22:08:40.172Z,18.92
2023-02-17T22:13:44.108Z,20.77
2023-02-17T22:18:49.211Z,16.20
2023-02-17T22:23:52.962Z,11.60
2023-02-17T22:28:57.148Z,15.77
2023-02-17T22:34:05.096Z,12.45
2023-02-17T22:39:09.783Z,13.63
2023-02-17T22:44:13.461Z,12.70
2023-02-17T22:49:18.656Z,15.70
2023-02-17T22:54:22.609Z,14.40
2023-02-17T22:59:26.371Z,13.73
2023-02-17T23:04:31.794Z,14.25
2023-02-17T23:09:35.546Z,20.35
2023-02-17T23:14:40.962Z,12.75
2023-02-17T23:19:46.049Z,15.85
2023-02-17T23:24:49.734Z,15.50
2023-02-17T23:29:53.513Z,17.05
2023-02-17T23:34:58.822Z,17.50
2023-02-17T23:40:02.997Z,20.80
2023-02-17T23:45:07.396Z,23.70
2023-02-17T23:50:13.739Z,17.60
2023-02-17T23:55:18.915Z,13.35
